Latest Weather Observations for Meekatharra

IDW60801

Issued at 10:05 pm WST Thursday 30 October 2014 (issued every 30 minutes, with the page automatically refreshed every 10 minutes)

About weather observations | Map of weather stations | Latest weather observations for WA | Other Formats
Station Details ID: 007045 Name: MEEKATHARRA AIRPORT Lat: -26.61 Lon: 118.54 Height: 517.0 m
Data from the previous 72 hours. | See also: Recent months at Meekatharra
Date/Time
WST
Temp
°C
App
Temp
°C
Dew
Point
Rel
Hum
%
Delta-T
°C
Wind Press
QNH
hPa
Press
MSL
hPa
Rain
since 9 am
mm
Dir
 
Spd
km/h
Gust
km/h
Spd
kts
Gust
kts
30/10:00pm 26.8 28.1 20.2 67 4.4 SW 13 19 7 10 1012.6 - 0.0
30/09:30pm 27.7 28.9 20.7 65 4.7 SW 15 19 8 10 1012.6 - 0.0
30/09:00pm 28.1 29.4 20.8 64 4.9 SW 15 20 8 11 1012.5 1010.0 0.0
30/08:30pm 28.9 30.1 20.6 61 5.6 SW 15 20 8 11 1012.4 - 0.0
30/08:00pm 29.5 30.1 19.4 54 6.7 WSW 15 19 8 10 1012.3 - 0.0
30/07:30pm 30.0 30.4 19.1 52 7.2 WSW 15 20 8 11 1012.1 - 0.0
30/07:00pm 30.7 29.9 19.3 50 7.6 WSW 22 32 12 17 1011.7 - 0.0
30/06:30pm 31.2 30.0 19.2 48 8.0 WSW 24 35 13 19 1011.2 - 0.0
30/06:00pm 32.2 31.5 19.5 47 8.5 WSW 22 33 12 18 1011.0 1008.6 0.0
30/05:30pm 33.0 31.4 19.1 43 9.3 WSW 26 39 14 21 1010.7 - 0.0
30/05:00pm 33.4 30.6 17.3 38 10.5 W 28 41 15 22 1010.6 - 0.0
30/04:32pm 34.0 30.7 16.1 34 11.5 WSW 28 46 15 25 1010.4 - 0.0
30/04:30pm 33.6 29.5 16.0 34 11.3 WSW 32 46 17 25 1010.4 - 0.0
30/04:24pm 34.2 30.0 14.7 31 12.3 WSW 30 46 16 25 1010.4 - 0.0
30/04:00pm 34.4 30.8 13.0 27 13.2 W 24 28 13 15 1010.5 - 0.0
30/03:30pm 34.9 30.4 10.1 22 14.7 WNW 24 37 13 20 1010.5 - 0.0
30/03:00pm 35.2 29.4 8.1 19 15.6 W 28 44 15 24 1010.5 1008.0 0.0
30/02:30pm 35.2 29.9 6.8 17 16.0 WNW 24 41 13 22 1010.8 - 0.0
30/02:14pm 35.1 28.8 5.7 16 16.3 W 28 46 15 25 1010.9 - 0.0
30/02:00pm 34.9 29.5 6.2 17 16.0 WNW 24 35 13 19 1011.1 - 0.0
30/01:30pm 33.5 28.7 5.6 17 15.3 W 20 33 11 18 1011.5 - 0.0
30/01:00pm 33.8 28.7 3.9 15 16.0 WNW 20 26 11 14 1012.1 - 0.0
30/12:30pm 34.1 29.9 5.5 17 15.7 WNW 17 26 9 14 1012.4 - 0.0
30/12:00pm 32.8 28.1 6.1 19 14.7 WNW 20 43 11 23 1012.7 1010.3 0.0
30/11:30am 32.6 28.0 5.4 18 14.8 WNW 19 30 10 16 1013.1 - 0.0
30/11:00am 31.7 27.6 7.7 22 13.5 WSW 19 30 10 16 1013.4 - 0.0
30/10:30am 31.7 27.9 7.4 22 13.6 W 17 30 9 16 1013.8 - 0.0
30/10:00am 30.2 27.8 10.2 29 11.6 WSW 13 17 7 9 1014.2 - 0.0
30/09:30am 29.2 27.7 10.4 31 10.9 WSW 9 17 5 9 1014.6 - 0.0
30/09:00am 27.4 26.0 10.8 35 9.6 WSW 9 15 5 8 1014.8 1012.4 0.0
30/08:30am 26.2 24.9 11.2 39 8.7 WSW 9 17 5 9 1014.7 - 0.0
30/08:00am 25.3 23.2 11.3 41 8.1 SW 13 15 7 8 1014.6 - 0.0
30/07:30am 24.3 22.3 11.5 44 7.4 SW 13 17 7 9 1014.6 - 0.0
30/06:30am 22.7 21.4 11.1 48 6.6 WSW 9 13 5 7 1014.2 - 0.0
30/06:00am 21.8 20.6 10.4 48 6.4 WSW 7 11 4 6 1013.8 1011.4 0.0
30/05:30am 20.9 20.0 10.7 52 5.7 WSW 6 9 3 5 1013.7 - 0.0
30/05:00am 21.7 20.8 11.5 52 5.8 WSW 7 11 4 6 1013.5 - 0.0
30/04:30am 22.6 20.8 11.0 48 6.6 WSW 11 13 6 7 1013.3 - 0.0
30/04:00am 22.6 20.8 11.0 48 6.6 WSW 11 13 6 7 1013.4 - 0.0
30/03:30am 23.1 20.9 10.8 45 7.0 WSW 13 17 7 9 1013.3 - 0.0
30/03:00am 23.1 21.3 10.8 45 7.0 WSW 11 13 6 7 1013.3 1010.9 0.0
30/02:30am 24.2 22.8 10.9 43 7.6 WSW 9 13 5 7 1013.3 - 0.0
30/02:00am 25.1 24.1 11.0 41 8.1 SW 7 15 4 8 1013.1 - 0.0
30/01:30am 26.0 24.4 10.2 37 9.0 SW 9 13 5 7 1013.1 - 0.0
30/01:00am 26.9 25.2 8.3 31 10.3 SW 7 11 4 6 1013.3 - 0.0
30/12:30am 27.1 24.9 7.8 29 10.6 SW 9 13 5 7 1013.5 - 0.0
30/12:00am 27.3 24.3 6.2 26 11.3 SW 11 15 6 8 1013.4 1011.0 0.0
 
Date/Time
WST
Temp
°C
App
Temp
°C
Dew
Point
Rel
Hum
%
Delta-T
°C
Wind Press
QNH
hPa
Press
MSL
hPa
Rain
since 9 am
mm
Dir
 
Spd
km/h
Gust
km/h
Spd
kts
Gust
kts
29/11:30pm 27.2 24.8 6.9 27 11.0 WSW 9 9 5 5 1013.3 - 0.0
29/11:00pm 27.3 24.8 6.5 26 11.2 WSW 9 11 5 6 1013.3 - 0.0
29/10:30pm 27.5 24.9 6.0 25 11.5 WSW 9 11 5 6 1013.6 - 0.0
29/10:00pm 27.7 25.0 5.4 24 11.8 WSW 9 11 5 6 1013.7 - 0.0
29/09:30pm 28.0 24.9 5.4 23 12.0 WSW 11 13 6 7 1013.7 - 0.0
29/09:00pm 28.6 25.8 5.2 22 12.4 WSW 9 13 5 7 1013.7 1011.3 0.0
29/08:30pm 29.2 25.7 5.4 22 12.7 WSW 13 17 7 9 1013.7 - 0.0
29/08:00pm 29.5 26.1 5.7 22 12.8 SW 13 17 7 9 1013.4 - 0.0
29/07:30pm 29.8 26.8 6.0 22 12.9 SW 11 15 6 8 1013.2 - 0.0
29/07:00pm 30.7 27.0 6.4 21 13.3 SW 15 20 8 11 1012.8 - 0.0
29/06:30pm 31.3 26.3 6.6 21 13.6 SW 22 30 12 16 1012.2 - 0.0
29/06:07pm 31.9 25.2 8.3 23 13.4 SW 33 39 18 21 1011.7 - 0.0
29/06:00pm 33.0 29.1 5.3 17 15.1 SSW 15 20 8 11 1011.5 1009.1 0.0
29/05:30pm 33.5 30.3 5.3 17 15.4 SSW 11 17 6 9 1011.2 - 0.0
29/05:00pm 33.6 29.4 5.5 17 15.4 SSW 17 28 9 15 1011.1 - 0.0
29/04:30pm 34.1 29.9 3.8 15 16.2 W 15 24 8 13 1011.2 - 0.0
29/04:00pm 33.6 28.1 4.2 16 15.8 W 22 33 12 18 1011.0 - 0.0
29/03:30pm 34.2 27.7 0.1 11 17.2 W 24 39 13 21 1011.4 - 0.0
29/03:00pm 34.7 29.0 0.6 11 17.4 W 20 32 11 17 1011.0 1008.6 0.0
29/02:30pm 35.6 29.5 0.4 11 18.0 WSW 22 33 12 18 1011.0 - 0.0
29/02:00pm 36.1 30.6 1.7 11 18.0 WSW 20 32 11 17 1011.0 - 0.0
29/01:30pm 36.6 30.6 0.9 10 18.5 WSW 22 37 12 20 1011.2 - 0.0
29/01:00pm 37.6 32.0 1.0 10 19.1 W 20 35 11 19 1011.3 - 0.0
29/12:30pm 36.6 30.5 3.0 12 18.0 W 24 41 13 22 1011.5 - 0.0
29/12:00pm 36.6 31.2 2.2 11 18.2 W 20 35 11 19 1011.7 1009.3 0.0
29/11:30am 36.4 31.1 3.2 12 17.8 W 20 32 11 17 1011.8 - 0.0
29/11:00am 36.1 30.9 3.6 13 17.5 WNW 20 30 11 16 1012.3 - 0.0
29/10:30am 35.6 30.5 4.3 14 17.0 WNW 20 30 11 16 1012.5 - 0.0
29/10:00am 34.2 30.8 4.0 15 16.2 NNW 11 20 6 11 1012.7 - 0.0
29/09:30am 33.0 27.9 3.1 15 15.7 N 19 30 10 16 1012.9 - 0.0
29/09:00am 32.2 26.9 3.2 16 15.2 N 20 28 11 15 1012.9 1010.5 0.0
29/08:30am 31.4 26.7 5.3 19 14.1 N 19 24 10 13 1013.0 - 0.0
29/08:00am 29.9 26.0 7.3 24 12.5 N 17 20 9 11 1012.9 - 0.0
29/07:30am 28.6 24.6 8.4 28 11.3 N 19 26 10 14 1012.8 - 0.0
29/07:00am 28.5 25.8 8.8 29 11.1 NNE 13 17 7 9 1012.8 - 0.0
29/06:30am 26.3 24.3 8.7 33 9.8 NNE 9 13 5 7 1012.5 - 0.0
29/06:00am 25.1 23.2 8.9 35 9.0 NNE 9 11 5 6 1012.2 1009.7 0.0
29/05:30am 25.6 23.6 8.6 34 9.4 NNE 9 13 5 7 1012.0 - 0.0
29/05:00am 26.2 23.2 7.7 31 10.1 NE 13 15 7 8 1011.7 - 0.0
29/04:30am 25.8 22.8 7.6 31 9.9 NE 13 17 7 9 1011.5 - 0.0
29/04:00am 25.7 22.7 7.5 31 9.9 NE 13 15 7 8 1011.5 - 0.0
29/03:30am 25.7 23.0 7.2 30 10.0 NE 11 13 6 7 1011.6 - 0.0
29/03:00am 25.7 23.7 7.2 30 10.0 NE 7 9 4 5 1012.0 1009.5 0.0
29/02:30am 25.1 24.2 7.6 32 9.5 NE 2 6 1 3 1012.0 - 0.0
29/02:00am 26.0 23.7 7.4 30 10.1 NE 9 11 5 6 1012.0 - 0.0
29/01:30am 26.8 23.9 6.5 27 10.9 NE 11 13 6 7 1012.0 - 0.0
29/01:00am 27.3 23.9 5.9 25 11.4 NE 13 17 7 9 1012.1 - 0.0
29/12:30am 26.4 24.2 7.8 30 10.2 NE 9 9 5 5 1012.2 - 0.0
29/12:00am 26.7 24.4 7.5 29 10.5 ENE 9 11 5 6 1012.6 1010.1 0.0
 
Date/Time
WST
Temp
°C
App
Temp
°C
Dew
Point
Rel
Hum
%
Delta-T
°C
Wind Press
QNH
hPa
Press
MSL
hPa
Rain
since 9 am
mm
Dir
 
Spd
km/h
Gust
km/h
Spd
kts
Gust
kts
28/11:30pm 27.9 24.2 6.1 25 11.7 ENE 15 20 8 11 1012.9 - 0.0
28/11:00pm 27.7 24.8 6.6 26 11.4 SSE 11 13 6 7 1012.8 - 0.0
28/10:30pm 27.6 24.8 7.0 27 11.2 SSE 11 11 6 6 1012.8 - 0.0
28/10:00pm 27.7 25.6 6.6 26 11.4 SSE 7 11 4 6 1012.7 - 0.0
28/09:30pm 27.8 26.5 9.2 31 10.5 SSE 6 9 3 5 1012.6 - 0.0
28/09:00pm 28.3 25.4 6.5 25 11.8 SSE 11 13 6 7 1012.3 1009.8 0.0
28/08:30pm 29.3 26.4 6.3 23 12.5 SSE 11 15 6 8 1012.3 - 0.0
28/08:00pm 30.3 26.8 5.4 20 13.4 SSE 13 17 7 9 1012.1 - 0.0
28/07:30pm 30.9 27.0 5.3 20 13.8 SSE 15 20 8 11 1012.0 - 0.0
28/07:00pm 31.7 28.1 5.2 19 14.3 S 13 15 7 8 1011.6 - 0.0
28/06:30pm 32.2 28.5 4.3 17 14.9 SW 13 17 7 9 1011.5 - 0.0
28/06:00pm 33.4 30.5 4.8 16 15.5 SW 9 15 5 8 1011.4 1009.0 0.0
28/05:30pm 33.3 29.7 5.2 17 15.3 SW 13 17 7 9 1011.8 - 0.0
28/05:00pm 34.2 28.0 4.1 15 16.2 WSW 26 37 14 20 1011.7 - 0.0
28/04:30pm 33.9 27.4 4.8 16 15.8 W 28 43 15 23 1011.3 - 0.0
28/04:00pm 35.7 31.4 3.1 13 17.4 NNE 15 20 8 11 1010.9 - 0.0
28/03:30pm 35.9 31.8 2.0 12 17.8 N 13 19 7 10 1011.1 - 0.0
28/03:00pm 36.1 31.3 2.5 12 17.8 N 17 28 9 15 1011.4 1009.0 0.0
28/02:30pm 35.3 31.9 4.0 14 16.9 NNE 11 19 6 10 1011.7 - 0.0
28/02:00pm 35.8 31.9 3.3 13 17.4 NE 13 22 7 12 1012.2 - 0.0
28/01:30pm 35.3 30.6 3.3 13 17.1 NNE 17 28 9 15 1012.6 - 0.0
28/01:00pm 35.7 30.7 3.4 13 17.3 NNE 19 28 10 15 1013.0 - 0.0
28/12:30pm 35.2 30.9 3.4 13 17.0 N 15 19 8 10 1013.4 - 0.0
28/12:00pm 34.4 29.4 3.7 14 16.4 NNE 19 28 10 15 1013.7 1011.3 0.0
28/11:30am 33.9 28.7 2.6 14 16.4 NNE 19 32 10 17 1014.2 - 0.0
28/11:00am 33.5 28.1 2.4 14 16.2 NNE 20 33 11 18 1014.5 - 0.0
28/10:30am 32.9 27.5 2.5 14 15.8 NNE 20 30 11 16 1014.8 - 0.0
28/10:00am 32.8 27.1 2.6 15 15.7 NE 22 35 12 19 1015.0 - 0.0
28/09:30am 31.7 26.0 3.1 16 14.9 NE 22 32 12 17 1015.1 - 0.0
28/09:00am 31.1 25.1 3.6 17 14.4 NE 24 35 13 19 1015.3 1012.9 0.0
28/08:30am 29.2 23.3 4.1 20 13.1 NE 24 39 13 21 1015.5 - 0.0
28/08:00am 27.5 20.8 3.8 22 12.2 NE 28 41 15 22 1015.5 - 0.0
28/07:50am 27.5 20.8 3.8 22 12.2 NE 28 46 15 25 1015.5 - 0.0
28/07:30am 27.0 19.9 3.4 22 12.0 NE 30 41 16 22 1015.4 - 0.0
28/07:00am 25.7 20.1 3.6 24 11.2 ENE 22 33 12 18 1015.4 - 0.0
28/06:30am 24.4 19.9 4.1 26 10.3 E 17 26 9 14 1015.4 - 0.0
28/06:00am 22.5 18.7 4.1 30 9.2 E 13 15 7 8 1015.3 1012.9 0.0
28/05:30am 21.7 17.9 4.0 31 8.8 E 13 17 7 9 1015.0 - 0.0
28/05:00am 22.0 18.1 3.6 30 9.1 E 13 19 7 10 1014.7 - 0.0
28/04:30am 22.6 17.9 3.4 28 9.5 E 17 24 9 13 1014.5 - 0.0
28/04:00am 23.1 18.0 3.0 27 9.9 E 19 24 10 13 1014.4 - 0.0
28/03:30am 23.6 17.9 2.6 25 10.3 E 22 30 12 16 1014.4 - 0.0
28/03:00am 23.6 18.4 2.6 25 10.3 E 19 24 10 13 1014.5 1012.1 0.0
28/02:30am 24.1 18.9 2.2 24 10.7 E 19 26 10 14 1014.6 - 0.0
28/02:00am 24.3 18.9 2.6 24 10.7 E 20 28 11 15 1014.6 - 0.0
28/01:30am 24.7 19.3 2.4 23 11.0 E 20 28 11 15 1014.5 - 0.0
28/01:00am 24.8 19.6 2.6 23 11.0 E 19 24 10 13 1014.6 - 0.0
28/12:30am 25.1 20.3 2.8 23 11.1 E 17 22 9 12 1015.0 - 0.0
28/12:00am 25.4 20.5 2.3 22 11.4 E 17 22 9 12 1015.1 1012.7 0.0
 
Date/Time
WST
Temp
°C
App
Temp
°C
Dew
Point
Rel
Hum
%
Delta-T
°C
Wind Press
QNH
hPa
Press
MSL
hPa
Rain
since 9 am
mm
Dir
 
Spd
km/h
Gust
km/h
Spd
kts
Gust
kts
27/11:30pm 26.0 20.5 1.8 20 11.9 E 20 28 11 15 1015.4 - 0.0
27/11:00pm 26.5 20.8 0.6 18 12.5 ESE 20 26 11 14 1015.6 - 0.0
27/10:30pm 26.9 21.1 -0.1 17 12.9 ESE 20 28 11 15 1015.7 - 0.0

Other Formats:

Comma delimited format used in spreadsheet applications
http://www.bom.gov.au/fwo/IDW60801/IDW60801.94430.axf

JavaScript Object Notation format (JSON) in row-major order
http://www.bom.gov.au/fwo/IDW60801/IDW60801.94430.json